Time;durP1;ratioP1;P1;durP2;ratioP2;P2;SDS_P1;SDS_P2;PMS_P1;PMS_P2;Temp;Humidity;BMP_temperature;BMP_pressure;BME280_temperature;BME280_humidity;BME280_pressure;Samples;Min_cycle;Max_cycle;Signal;HPM_P1;HPM_P2
2021/03/20 00:00:45;;;;;;;5.03;2.40;;;-2.20;99.90;;;;;;4422635;32;20226;-73
2021/03/20 00:03:13;;;;;;;5.80;2.40;;;-2.30;99.90;;;;;;4423580;32;20163;-74
2021/03/20 00:05:40;;;;;;;3.23;2.00;;;-2.20;99.90;;;;;;4425148;32;20429;-74
2021/03/20 00:08:11;;;;;;;4.67;2.20;;;-2.20;99.90;;;;;;4423659;32;20143;-74
2021/03/20 00:10:38;;;;;;;4.37;2.00;;;-2.20;99.90;;;;;;4424168;32;20139;-74
2021/03/20 00:13:05;;;;;;;3.57;2.10;;;-2.30;99.90;;;;;;4424083;32;20484;-73
2021/03/20 00:15:32;;;;;;;5.10;2.90;;;-2.30;99.90;;;;;;4424039;32;20165;-74
2021/03/20 00:18:00;;;;;;;4.47;2.50;;;-2.20;99.90;;;;;;4424121;32;20226;-74
2021/03/20 00:20:36;;;;;;;5.67;2.60;;;-2.10;99.90;;;;;;4424172;32;20158;-74
2021/03/20 00:23:04;;;;;;;5.97;2.90;;;-2.10;99.90;;;;;;4423525;32;20488;-73
2021/03/20 00:25:31;;;;;;;6.63;2.87;;;-2.00;99.90;;;;;;4423616;32;20251;-74
2021/03/20 00:27:58;;;;;;;4.77;2.90;;;-2.00;99.90;;;;;;4423418;32;20263;-74
2021/03/20 00:30:26;;;;;;;5.37;2.97;;;-2.00;99.90;;;;;;4424156;32;20145;-73
2021/03/20 00:32:53;;;;;;;5.70;3.10;;;-2.00;99.90;;;;;;4423586;32;20394;-74
2021/03/20 00:35:23;;;;;;;8.00;3.00;;;-2.10;99.90;;;;;;4423623;32;20131;-74
2021/03/20 00:37:52;;;;;;;4.83;2.60;;;-2.00;99.90;;;;;;4424686;32;20135;-74
2021/03/20 00:40:23;;;;;;;5.07;2.87;;;-2.00;99.90;;;;;;4425572;32;20231;-74
2021/03/20 00:42:51;;;;;;;4.83;3.03;;;-2.00;99.90;;;;;;4423549;32;20156;-74
2021/03/20 00:45:18;;;;;;;6.87;3.27;;;-2.00;99.90;;;;;;4410575;32;20151;-74
2021/03/20 00:47:45;;;;;;;5.50;2.63;;;-1.90;99.90;;;;;;4423467;32;20158;-74
2021/03/20 00:50:14;;;;;;;5.30;3.03;;;-1.90;99.90;;;;;;4423987;32;20150;-74
2021/03/20 00:52:41;;;;;;;6.17;2.90;;;-1.90;99.90;;;;;;4423528;32;20167;-74
2021/03/20 00:55:10;;;;;;;4.37;2.80;;;-2.00;99.90;;;;;;4423946;32;20539;-74
2021/03/20 00:57:37;;;;;;;5.50;2.83;;;-2.10;99.90;;;;;;4423898;32;20466;-74
2021/03/20 01:00:12;;;;;;;4.97;2.70;;;-2.10;99.90;;;;;;4423937;32;20200;-74
2021/03/20 01:02:39;;;;;;;6.03;2.80;;;-2.10;99.90;;;;;;4424444;32;20178;-74
2021/03/20 01:05:08;;;;;;;5.00;2.70;;;-2.10;99.90;;;;;;4423868;32;20195;-74
2021/03/20 01:07:35;;;;;;;4.40;2.57;;;-2.10;99.90;;;;;;4425136;32;20385;-74
2021/03/20 01:10:13;;;;;;;5.80;3.10;;;-2.10;99.90;;;;;;4426632;32;20196;-74
2021/03/20 01:12:40;;;;;;;5.60;2.97;;;-2.10;99.90;;;;;;4426208;32;20223;-74
2021/03/20 01:15:08;;;;;;;4.93;3.03;;;-2.00;99.90;;;;;;4412926;32;20242;-74
2021/03/20 01:17:35;;;;;;;7.47;2.67;;;-2.00;99.90;;;;;;4426768;32;20151;-74
2021/03/20 01:20:05;;;;;;;5.97;2.47;;;-2.00;99.90;;;;;;4427457;32;20144;-74
2021/03/20 01:22:32;;;;;;;5.00;2.70;;;-2.10;99.90;;;;;;4425900;32;20193;-74
2021/03/20 01:24:59;;;;;;;5.87;2.43;;;-2.10;99.90;;;;;;4426490;32;20473;-74
2021/03/20 01:27:25;;;;;;;6.27;2.30;;;-2.10;99.90;;;;;;4425605;32;20163;-74
2021/03/20 01:29:52;;;;;;;3.27;2.10;;;-2.10;99.90;;;;;;4426585;32;20195;-74
2021/03/20 01:32:18;;;;;;;5.80;2.40;;;-2.10;99.90;;;;;;4426167;32;20202;-74
2021/03/20 01:34:45;;;;;;;3.17;2.07;;;-2.10;99.90;;;;;;4426024;32;20210;-74
2021/03/20 01:37:12;;;;;;;3.10;2.17;;;-2.00;99.90;;;;;;4427392;32;20135;-74
2021/03/20 01:39:48;;;;;;;3.57;2.10;;;-2.20;99.90;;;;;;4426341;32;20131;-74
2021/03/20 01:42:15;;;;;;;4.50;2.37;;;-2.10;99.90;;;;;;4426089;32;20385;-73
2021/03/20 01:44:42;;;;;;;3.83;2.20;;;-2.10;99.90;;;;;;4426145;32;20165;-73
2021/03/20 01:47:17;;;;;;;5.03;2.47;;;-2.20;99.90;;;;;;4426141;32;20170;-74
2021/03/20 01:49:46;;;;;;;4.77;2.30;;;-2.20;99.90;;;;;;4426474;32;20154;-74
2021/03/20 01:52:21;;;;;;;3.70;2.20;;;-2.20;99.90;;;;;;4425475;32;20189;-74
2021/03/20 01:55:08;;;;;;;3.23;2.17;;;-2.20;99.90;;;;;;4413371;32;20449;-74
2021/03/20 01:57:39;;;;;;;4.03;2.30;;;-2.30;99.90;;;;;;4425449;32;20135;-73
2021/03/20 02:00:14;;;;;;;5.00;2.20;;;-2.30;99.90;;;;;;4426803;32;20239;-74
2021/03/20 02:02:41;;;;;;;3.63;2.07;;;-2.30;99.90;;;;;;4426058;32;20168;-74
2021/03/20 02:05:13;;;;;;;4.10;2.00;;;-2.30;99.90;;;;;;4426433;32;20174;-74
2021/03/20 02:07:40;;;;;;;4.10;2.33;;;-2.40;99.90;;;;;;4425871;32;20192;-74
2021/03/20 02:10:12;;;;;;;3.77;2.03;;;-2.40;99.90;;;;;;4426914;32;20139;-74
2021/03/20 02:12:41;;;;;;;3.20;2.03;;;-2.40;99.90;;;;;;4425775;32;20231;-73
2021/03/20 02:15:13;;;;;;;4.90;2.13;;;-2.40;99.90;;;;;;4425762;32;20168;-74
2021/03/20 02:17:45;;;;;;;4.33;2.13;;;-2.40;99.90;;;;;;4426373;32;20169;-74
2021/03/20 02:20:21;;;;;;;3.30;2.10;;;-2.40;99.90;;;;;;4425109;32;20158;-73
2021/03/20 02:23:05;;;;;;;4.03;2.13;;;-2.50;99.90;;;;;;4425818;32;20161;-74
2021/03/20 02:26:02;;;;;;;4.40;2.20;;;-2.40;99.90;;;;;;4425705;32;20134;-74
2021/03/20 02:29:07;;;;;;;3.80;2.30;;;-2.40;99.90;;;;;;4424749;32;20225;-74
2021/03/20 02:31:58;;;;;;;4.57;2.20;;;-2.30;99.90;;;;;;4396448;32;20155;-74
2021/03/20 02:34:58;;;;;;;5.93;2.50;;;-2.30;99.90;;;;;;4425437;32;20166;-74
2021/03/20 02:37:45;;;;;;;5.90;2.57;;;-2.20;99.90;;;;;;4426031;32;20158;-74
2021/03/20 02:40:59;;;;;;;7.33;2.53;;;-2.00;99.90;;;;;;4425934;32;20448;-74
2021/03/20 02:43:53;;;;;;;4.93;2.20;;;-2.00;99.90;;;;;;4425506;32;20167;-74
2021/03/20 02:46:37;;;;;;;6.80;2.70;;;-2.00;99.90;;;;;;4425698;32;20169;-74
2021/03/20 02:49:20;;;;;;;6.33;2.73;;;-2.00;99.90;;;;;;4425184;32;20210;-74
2021/03/20 02:51:55;;;;;;;7.27;2.70;;;-1.90;99.90;;;;;;4425330;32;20143;-74
2021/03/20 02:54:29;;;;;;;6.57;3.00;;;-1.90;99.90;;;;;;4425154;32;20251;-74
2021/03/20 02:57:06;;;;;;;5.83;3.07;;;-1.90;99.90;;;;;;4425227;32;20138;-74
2021/03/20 02:59:39;;;;;;;6.47;3.20;;;-2.00;99.90;;;;;;4425077;32;20344;-74
2021/03/20 03:02:08;;;;;;;6.23;3.43;;;-2.00;99.90;;;;;;4424994;32;20420;-74
2021/03/20 03:04:44;;;;;;;6.03;3.23;;;-2.10;99.90;;;;;;4424514;32;20162;-74
2021/03/20 03:07:41;;;;;;;7.80;3.70;;;-2.00;99.90;;;;;;4425432;32;20144;-74
2021/03/20 03:10:26;;;;;;;6.00;3.27;;;-2.10;99.90;;;;;;4347852;33;20153;-74
2021/03/20 03:13:06;;;;;;;7.57;3.30;;;-2.10;99.90;;;;;;4347443;33;20203;-74
2021/03/20 03:15:40;;;;;;;9.40;3.47;;;-2.00;99.90;;;;;;4348347;33;20358;-74
2021/03/20 03:18:12;;;;;;;7.30;3.30;;;-2.10;99.90;;;;;;4349202;33;20140;-74
2021/03/20 03:20:46;;;;;;;5.80;3.17;;;-2.10;99.90;;;;;;4347618;33;20188;-74
2021/03/20 03:23:18;;;;;;;7.00;3.40;;;-2.10;99.90;;;;;;4347620;33;20570;-74
2021/03/20 03:25:54;;;;;;;6.43;3.33;;;-2.00;99.90;;;;;;4347094;33;20144;-74
2021/03/20 03:28:25;;;;;;;7.57;3.87;;;-1.90;99.90;;;;;;4347207;33;20159;-74
2021/03/20 03:30:57;;;;;;;6.47;3.90;;;-1.90;99.90;;;;;;4347273;33;20439;-74
2021/03/20 03:33:38;;;;;;;8.63;3.77;;;-1.90;99.90;;;;;;4348905;33;20172;-74
2021/03/20 03:36:09;;;;;;;7.47;3.70;;;-1.90;99.90;;;;;;4347219;33;20145;-74
2021/03/20 03:38:55;;;;;;;9.13;3.90;;;-1.90;99.90;;;;;;4347650;33;20145;-74
2021/03/20 03:41:28;;;;;;;7.50;3.40;;;-1.90;99.90;;;;;;4347374;33;20171;-74
2021/03/20 03:43:55;;;;;;;8.73;3.90;;;-1.90;99.90;;;;;;4347434;33;20556;-74
2021/03/20 03:46:24;;;;;;;6.73;3.43;;;-2.10;99.90;;;;;;4364206;32;20139;-74
2021/03/20 03:49:03;;;;;;;6.77;3.20;;;-2.20;99.90;;;;;;4423897;32;20438;-74
2021/03/20 03:51:29;;;;;;;9.60;3.70;;;-2.10;99.90;;;;;;4424502;32;20190;-74
2021/03/20 03:53:59;;;;;;;5.30;3.30;;;-2.00;99.90;;;;;;4425014;32;20151;-74
2021/03/20 03:56:58;;;;;;;8.73;3.60;;;-1.90;99.90;;;;;;4424294;32;20507;-74
2021/03/20 03:59:43;;;;;;;8.87;4.00;;;-2.00;99.90;;;;;;4347244;33;20256;-74
2021/03/20 04:02:18;;;;;;;8.13;3.43;;;-1.80;99.90;;;;;;4347037;33;20180;-74
2021/03/20 04:04:58;;;;;;;8.23;3.80;;;-1.90;99.90;;;;;;4347913;33;20141;-74
2021/03/20 04:07:52;;;;;;;6.23;3.27;;;-1.90;99.90;;;;;;4334929;33;20294;-74
2021/03/20 04:10:53;;;;;;;5.07;3.20;;;-2.00;99.90;;;;;;4336392;33;20148;-74
2021/03/20 04:13:29;;;;;;;7.77;3.50;;;-2.20;99.90;;;;;;4334749;33;20186;-74
2021/03/20 04:16:08;;;;;;;9.47;3.43;;;-2.10;99.90;;;;;;4348344;33;20518;-73
2021/03/20 04:19:08;;;;;;;7.27;3.47;;;-2.30;99.90;;;;;;4347845;33;20145;-73
2021/03/20 04:21:42;;;;;;;7.13;3.77;;;-2.20;99.90;;;;;;4347184;33;20160;-74
2021/03/20 04:24:23;;;;;;;6.77;3.57;;;-2.20;99.90;;;;;;4347467;33;20171;-74
2021/03/20 04:26:57;;;;;;;8.90;3.47;;;-2.30;99.90;;;;;;4346529;33;20504;-74
2021/03/20 04:29:52;;;;;;;7.13;3.30;;;-2.30;99.90;;;;;;4346940;33;20210;-74
2021/03/20 04:32:26;;;;;;;7.37;3.23;;;-2.30;99.90;;;;;;4334643;33;20207;-74
2021/03/20 04:35:07;;;;;;;7.50;3.60;;;-2.30;99.90;;;;;;4346287;33;20232;-73
2021/03/20 04:37:40;;;;;;;7.40;3.20;;;-2.30;99.90;;;;;;4420342;32;20234;-74
2021/03/20 04:40:13;;;;;;;6.87;3.50;;;-2.20;99.90;;;;;;4423999;32;20152;-74
2021/03/20 04:42:40;;;;;;;9.03;3.27;;;-2.20;99.90;;;;;;4425345;32;20202;-74
2021/03/20 04:45:28;;;;;;;8.77;3.07;;;-2.20;99.90;;;;;;4426330;32;20151;-73
2021/03/20 04:48:01;;;;;;;6.50;3.17;;;-2.20;99.90;;;;;;4427424;32;20134;-74
2021/03/20 04:50:29;;;;;;;6.70;3.10;;;-2.20;99.90;;;;;;4426783;32;20194;-74
2021/03/20 04:52:59;;;;;;;5.27;2.70;;;-2.20;99.90;;;;;;4426804;32;20170;-74
2021/03/20 04:55:27;;;;;;;6.93;3.03;;;-2.20;99.90;;;;;;4426142;32;20150;-74
2021/03/20 04:58:14;;;;;;;7.53;3.17;;;-2.20;99.90;;;;;;4426928;32;20143;-74
2021/03/20 05:00:50;;;;;;;7.97;2.97;;;-2.20;99.90;;;;;;4427239;32;20143;-74
2021/03/20 05:03:28;;;;;;;8.23;3.17;;;-2.20;99.90;;;;;;4428630;32;20168;-73
2021/03/20 05:06:15;;;;;;;8.57;3.40;;;-2.30;99.90;;;;;;4427673;32;20138;-74
2021/03/20 05:08:46;;;;;;;6.37;2.80;;;-2.50;99.90;;;;;;4413733;32;20158;-74
2021/03/20 05:11:13;;;;;;;7.50;3.13;;;-2.70;99.90;;;;;;4427370;32;20131;-74
2021/03/20 05:13:42;;;;;;;4.50;2.77;;;-2.70;99.90;;;;;;4427074;32;20174;-74
2021/03/20 05:16:18;;;;;;;6.80;2.80;;;-2.60;99.90;;;;;;4426418;32;20228;-73
2021/03/20 05:18:47;;;;;;;5.77;2.80;;;-2.50;99.90;;;;;;4426437;32;20135;-74
2021/03/20 05:21:17;;;;;;;7.17;2.70;;;-2.60;99.90;;;;;;4426349;32;20147;-74
2021/03/20 05:23:44;;;;;;;7.63;3.00;;;-2.60;99.90;;;;;;4426402;32;20155;-74
2021/03/20 05:26:12;;;;;;;5.80;3.00;;;-2.50;99.90;;;;;;4426402;32;20139;-74
2021/03/20 05:28:39;;;;;;;8.23;3.13;;;-2.50;99.90;;;;;;4425748;32;20165;-74
2021/03/20 05:31:06;;;;;;;8.20;3.20;;;-2.50;99.90;;;;;;4426569;32;20163;-74
2021/03/20 05:33:36;;;;;;;8.53;3.00;;;-2.40;99.90;;;;;;4427693;32;20205;-74
2021/03/20 05:36:03;;;;;;;6.67;3.00;;;-2.40;99.90;;;;;;4426644;32;20465;-73
2021/03/20 05:38:30;;;;;;;6.00;2.80;;;-2.30;99.90;;;;;;4427190;32;20186;-74
2021/03/20 05:41:04;;;;;;;6.10;3.03;;;-2.30;99.90;;;;;;4426505;32;20485;-74
2021/03/20 05:43:57;;;;;;;5.90;2.80;;;-2.20;99.90;;;;;;4426201;32;20169;-74
2021/03/20 05:46:30;;;;;;;5.90;2.73;;;-2.00;99.90;;;;;;4426191;32;20146;-74
2021/03/20 05:49:23;;;;;;;8.40;3.00;;;-2.10;99.90;;;;;;4426024;32;20395;-74
2021/03/20 05:52:44;;;;;;;6.70;3.00;;;-2.00;99.90;;;;;;4426750;32;20204;-74
2021/03/20 05:55:23;;;;;;;6.30;3.00;;;-2.10;99.90;;;;;;4347353;33;20200;-74
2021/03/20 05:58:23;;;;;;;5.03;2.40;;;-2.00;99.90;;;;;;4349618;33;20356;-74
2021/03/20 06:01:04;;;;;;;7.80;3.10;;;-2.00;99.90;;;;;;4348234;33;20180;-74
2021/03/20 06:04:00;;;;;;;6.57;2.83;;;-1.90;99.90;;;;;;4348156;33;20176;-73
2021/03/20 06:06:52;;;;;;;6.30;2.83;;;-1.80;99.90;;;;;;4336724;33;20195;-74
2021/03/20 06:09:28;;;;;;;7.40;2.93;;;-1.80;99.90;;;;;;4348649;33;20447;-73
2021/03/20 06:11:55;;;;;;;8.87;3.00;;;-1.80;99.90;;;;;;4347787;33;20382;-73
2021/03/20 06:15:02;;;;;;;8.27;3.10;;;-1.80;99.90;;;;;;4347787;33;20148;-73
2021/03/20 06:18:02;;;;;;;6.00;2.93;;;-1.80;99.90;;;;;;4350398;33;20164;-73
2021/03/20 06:20:50;;;;;;;5.90;2.90;;;-1.70;99.90;;;;;;4348184;33;20145;-73
2021/03/20 06:23:23;;;;;;;7.57;3.07;;;-1.60;99.90;;;;;;4348537;33;20201;-73
2021/03/20 06:25:55;;;;;;;6.77;3.10;;;-1.50;99.90;;;;;;4348150;33;20306;-74
2021/03/20 06:28:27;;;;;;;8.47;3.50;;;-1.60;99.90;;;;;;4368637;32;20170;-74
2021/03/20 06:31:03;;;;;;;4.67;2.80;;;-1.40;99.90;;;;;;4425195;32;20162;-74
2021/03/20 06:33:43;;;;;;;7.57;2.90;;;-1.40;98.80;;;;;;4426194;32;20246;-74
2021/03/20 06:36:20;;;;;;;7.27;3.10;;;-1.40;98.20;;;;;;4426640;32;20177;-74
2021/03/20 06:38:56;;;;;;;10.27;3.00;;;-1.30;98.50;;;;;;4425400;32;20147;-74
2021/03/20 06:41:59;;;;;;;9.07;3.27;;;-1.30;98.10;;;;;;4425661;32;20145;-74
2021/03/20 06:44:36;;;;;;;8.07;3.40;;;-1.30;96.60;;;;;;4425124;32;20194;-74
2021/03/20 06:47:14;;;;;;;9.20;3.53;;;-1.40;97.50;;;;;;4425180;32;20202;-74
2021/03/20 06:50:21;;;;;;;8.57;3.50;;;-1.30;97.30;;;;;;4425038;32;20165;-74
2021/03/20 06:53:01;;;;;;;7.33;3.47;;;-1.10;96.60;;;;;;4347436;33;20151;-74
2021/03/20 06:55:29;;;;;;;5.90;3.10;;;-1.10;95.50;;;;;;4347616;33;20174;-74
2021/03/20 06:57:57;;;;;;;6.73;3.13;;;-0.90;94.90;;;;;;4347970;33;20235;-74
2021/03/20 07:00:29;;;;;;;9.07;3.77;;;-1.00;94.40;;;;;;4348626;33;20204;-74
2021/03/20 07:03:34;;;;;;;9.33;3.80;;;-1.10;93.90;;;;;;4347714;33;20172;-74
2021/03/20 07:06:11;;;;;;;7.07;3.10;;;-1.10;94.50;;;;;;4349271;33;20156;-74
2021/03/20 07:08:56;;;;;;;8.00;3.53;;;-1.00;94.60;;;;;;4347442;33;20206;-74
2021/03/20 07:11:28;;;;;;;7.17;3.27;;;-0.70;94.10;;;;;;4346667;33;20212;-74
2021/03/20 07:14:59;;;;;;;9.93;3.90;;;-0.60;93.90;;;;;;4347900;33;20152;-74
2021/03/20 07:17:33;;;;;;;7.07;3.10;;;-0.30;92.70;;;;;;4344954;33;20406;-74
2021/03/20 07:20:12;;;;;;;8.80;3.30;;;-0.40;91.80;;;;;;4347422;33;20187;-74
2021/03/20 07:22:50;;;;;;;5.90;3.20;;;-0.60;92.20;;;;;;4346121;33;20606;-73
2021/03/20 07:25:25;;;;;;;8.93;3.63;;;-0.50;92.00;;;;;;4345992;33;20251;-74
2021/03/20 07:27:55;;;;;;;10.50;3.37;;;-0.20;91.80;;;;;;4347461;33;20163;-74
2021/03/20 07:30:31;;;;;;;7.70;3.60;;;0.00;91.20;;;;;;4412553;32;20422;-74
2021/03/20 07:32:57;;;;;;;9.57;3.47;;;0.10;90.30;;;;;;4424506;32;20436;-74
2021/03/20 07:35:32;;;;;;;7.13;3.13;;;0.00;90.30;;;;;;4410525;32;20208;-74
2021/03/20 07:38:33;;;;;;;8.23;3.40;;;0.10;90.30;;;;;;4423745;32;20165;-74
2021/03/20 07:41:12;;;;;;;8.70;3.73;;;0.30;89.80;;;;;;4424883;32;20236;-74
2021/03/20 07:43:39;;;;;;;7.30;3.50;;;0.30;89.00;;;;;;4425601;32;20180;-74
2021/03/20 07:46:11;;;;;;;5.87;3.47;;;0.40;89.40;;;;;;4424291;32;20165;-74
2021/03/20 07:48:39;;;;;;;7.70;3.53;;;0.30;88.10;;;;;;4424234;32;20147;-74
2021/03/20 07:51:18;;;;;;;8.00;3.47;;;0.30;88.70;;;;;;4424266;32;20142;-74
2021/03/20 07:53:51;;;;;;;7.70;3.63;;;0.40;88.60;;;;;;4424097;32;20143;-74
2021/03/20 07:56:32;;;;;;;5.37;3.30;;;0.70;88.40;;;;;;4424220;32;20369;-74
2021/03/20 07:59:03;;;;;;;7.17;3.40;;;0.80;86.40;;;;;;4410201;32;20191;-73
2021/03/20 08:01:34;;;;;;;7.67;3.17;;;0.80;85.60;;;;;;4424279;32;20171;-74
2021/03/20 08:04:04;;;;;;;8.53;3.20;;;0.90;83.80;;;;;;4424550;32;20158;-73
2021/03/20 08:06:31;;;;;;;6.53;3.50;;;0.90;84.40;;;;;;4424591;32;20469;-73
2021/03/20 08:09:17;;;;;;;7.57;3.40;;;1.00;84.10;;;;;;4424192;32;20169;-74
2021/03/20 08:11:49;;;;;;;6.57;3.30;;;0.90;83.50;;;;;;4424181;32;20164;-73
2021/03/20 08:14:25;;;;;;;5.87;3.37;;;1.10;83.60;;;;;;4424135;32;20492;-74
2021/03/20 08:16:51;;;;;;;8.53;3.23;;;1.30;81.50;;;;;;4425356;32;20138;-74
2021/03/20 08:19:20;;;;;;;8.30;3.40;;;1.40;81.70;;;;;;4427074;32;20169;-74
2021/03/20 08:21:46;;;;;;;8.43;3.53;;;1.20;81.00;;;;;;4426583;32;20158;-74
2021/03/20 08:24:28;;;;;;;5.43;3.23;;;1.30;81.80;;;;;;4427241;32;20147;-75
2021/03/20 08:27:03;;;;;;;9.03;3.33;;;1.50;80.80;;;;;;4427283;32;20178;-74
2021/03/20 08:29:42;;;;;;;8.00;3.50;;;1.50;80.10;;;;;;4428400;32;20182;-74
2021/03/20 08:32:23;;;;;;;7.00;3.20;;;2.00;81.50;;;;;;4414273;32;20143;-74
2021/03/20 08:35:18;;;;;;;6.93;3.17;;;2.30;76.60;;;;;;4427010;32;20402;-73
2021/03/20 08:38:06;;;;;;;7.57;3.10;;;2.20;75.10;;;;;;4427841;32;20500;-73
2021/03/20 08:40:45;;;;;;;6.07;3.00;;;2.10;75.90;;;;;;4426846;32;20142;-72
2021/03/20 08:43:43;;;;;;;7.17;3.10;;;2.00;75.40;;;;;;4426567;32;20166;-73
2021/03/20 08:46:28;;;;;;;7.67;3.20;;;1.60;74.20;;;;;;4426946;32;20221;-73
2021/03/20 08:49:19;;;;;;;5.83;3.10;;;1.40;76.30;;;;;;4427992;32;20147;-73
2021/03/20 08:52:17;;;;;;;7.03;2.90;;;1.60;77.50;;;;;;4426046;32;20398;-73
2021/03/20 08:55:25;;;;;;;5.67;2.83;;;2.00;76.10;;;;;;4427252;32;20159;-73
2021/03/20 08:58:14;;;;;;;7.17;3.07;;;2.20;74.10;;;;;;4426540;32;20194;-73
2021/03/20 09:00:47;;;;;;;7.67;2.97;;;2.30;74.40;;;;;;4426856;32;20150;-74
2021/03/20 09:03:18;;;;;;;6.93;2.83;;;2.40;74.30;;;;;;4426650;32;20147;-73
2021/03/20 09:05:47;;;;;;;7.23;2.83;;;2.40;73.90;;;;;;4427946;32;20213;-73
2021/03/20 09:08:14;;;;;;;5.70;2.70;;;2.40;73.00;;;;;;4426246;32;20402;-73
2021/03/20 09:11:05;;;;;;;6.47;2.80;;;2.50;71.90;;;;;;4426409;32;20510;-74
2021/03/20 09:13:44;;;;;;;7.43;2.97;;;2.50;72.90;;;;;;4426923;32;20454;-73
2021/03/20 09:16:46;;;;;;;8.43;2.93;;;2.60;71.80;;;;;;4426527;32;20139;-73
2021/03/20 09:19:20;;;;;;;5.93;2.53;;;2.90;70.40;;;;;;4423593;32;20482;-73
2021/03/20 09:21:47;;;;;;;6.50;3.10;;;2.90;69.80;;;;;;4426043;32;20450;-73
2021/03/20 09:24:24;;;;;;;6.27;2.73;;;2.90;70.30;;;;;;4426592;32;20197;-72
2021/03/20 09:26:57;;;;;;;6.73;2.80;;;2.90;69.30;;;;;;4426452;32;20166;-74
2021/03/20 09:29:34;;;;;;;5.17;2.90;;;3.00;68.90;;;;;;4426474;32;20182;-74
2021/03/20 09:32:14;;;;;;;6.03;2.63;;;3.30;69.60;;;;;;4426249;32;20450;-74
2021/03/20 09:34:47;;;;;;;6.77;2.87;;;3.50;68.60;;;;;;4426139;32;20236;-72
2021/03/20 09:37:17;;;;;;;6.77;3.10;;;3.70;67.90;;;;;;4425623;32;20147;-74
2021/03/20 09:39:50;;;;;;;6.20;3.00;;;3.90;65.50;;;;;;4426121;32;20169;-75
2021/03/20 09:42:35;;;;;;;8.30;3.13;;;3.60;66.10;;;;;;4426007;32;20159;-74
2021/03/20 09:45:25;;;;;;;7.00;3.10;;;3.70;65.70;;;;;;4426351;32;20234;-74
2021/03/20 09:47:54;;;;;;;8.43;3.47;;;3.30;65.60;;;;;;4426353;32;20192;-73
2021/03/20 09:50:20;;;;;;;6.70;3.10;;;3.50;65.20;;;;;;4426230;32;20139;-74
2021/03/20 09:53:09;;;;;;;7.03;2.97;;;3.60;64.90;;;;;;4425976;32;20191;-73
2021/03/20 09:55:47;;;;;;;9.90;3.20;;;3.70;66.10;;;;;;4425450;32;20151;-73
2021/03/20 09:58:19;;;;;;;4.90;2.87;;;4.00;66.10;;;;;;4426162;32;20450;-73
2021/03/20 10:00:53;;;;;;;5.03;2.77;;;4.10;65.50;;;;;;4425855;32;20152;-73
2021/03/20 10:03:38;;;;;;;7.37;3.10;;;4.20;63.30;;;;;;4425759;32;20198;-73
2021/03/20 10:06:29;;;;;;;5.60;2.80;;;3.60;62.20;;;;;;4425896;32;20407;-73
2021/03/20 10:09:08;;;;;;;5.37;2.80;;;3.70;63.80;;;;;;4411897;32;20177;-73
2021/03/20 10:11:39;;;;;;;7.33;3.00;;;4.00;63.00;;;;;;4427037;32;20165;-73
2021/03/20 10:14:24;;;;;;;5.67;2.80;;;4.00;63.50;;;;;;4425611;32;20196;-73
2021/03/20 10:17:27;;;;;;;4.77;2.70;;;4.20;62.60;;;;;;4427116;32;20135;-73
2021/03/20 10:20:15;;;;;;;6.73;2.77;;;4.40;61.80;;;;;;4427009;32;20201;-73
2021/03/20 10:22:59;;;;;;;5.37;2.63;;;5.10;61.10;;;;;;4425840;32;20205;-73
2021/03/20 10:25:26;;;;;;;5.10;2.60;;;5.10;58.20;;;;;;4427353;32;20196;-73
2021/03/20 10:28:06;;;;;;;5.40;2.67;;;5.90;58.50;;;;;;4425529;32;20205;-73
2021/03/20 10:30:35;;;;;;;5.37;2.63;;;5.20;56.60;;;;;;4425351;32;20254;-74
2021/03/20 10:33:02;;;;;;;6.10;2.73;;;5.40;57.40;;;;;;4426234;32;20160;-74
2021/03/20 10:35:31;;;;;;;4.20;2.43;;;5.70;56.40;;;;;;4425223;32;20421;-74
2021/03/20 10:38:13;;;;;;;5.73;2.50;;;5.90;55.30;;;;;;4427413;32;20181;-74
2021/03/20 10:40:40;;;;;;;6.07;2.57;;;5.80;55.20;;;;;;4424877;32;20234;-73
2021/03/20 10:43:13;;;;;;;6.20;2.40;;;6.00;55.30;;;;;;4425281;32;20176;-74
2021/03/20 10:45:43;;;;;;;7.27;2.53;;;6.50;54.80;;;;;;4426379;32;20173;-71
2021/03/20 10:48:28;;;;;;;4.30;2.57;;;6.80;53.70;;;;;;4424814;32;20199;-72
2021/03/20 10:51:04;;;;;;;6.53;2.50;;;6.70;53.10;;;;;;4426131;32;20195;-71
2021/03/20 10:53:39;;;;;;;8.10;2.30;;;6.80;52.00;;;;;;4411465;32;20206;-71
2021/03/20 10:56:06;;;;;;;4.57;1.90;;;6.60;52.30;;;;;;4425628;32;20135;-71
2021/03/20 10:58:42;;;;;;;5.13;2.13;;;6.60;51.70;;;;;;4425414;32;20151;-71
2021/03/20 11:01:11;;;;;;;4.47;2.07;;;6.60;51.00;;;;;;4425198;32;20176;-71
2021/03/20 11:03:46;;;;;;;3.63;2.00;;;6.60;50.80;;;;;;4424209;32;20511;-71
2021/03/20 11:06:22;;;;;;;4.43;2.00;;;6.60;49.70;;;;;;4424730;32;20389;-71
2021/03/20 11:09:07;;;;;;;4.30;2.10;;;6.80;50.60;;;;;;4425468;32;20138;-71
2021/03/20 11:11:39;;;;;;;4.87;2.20;;;6.80;49.10;;;;;;4426301;32;20150;-71
2021/03/20 11:14:13;;;;;;;4.77;2.07;;;7.00;50.00;;;;;;4426381;32;20212;-70
2021/03/20 11:16:57;;;;;;;4.83;2.20;;;7.50;50.00;;;;;;4425413;32;20241;-71
2021/03/20 11:19:33;;;;;;;3.80;2.00;;;7.70;48.30;;;;;;4425290;32;20519;-70
2021/03/20 11:22:42;;;;;;;3.97;2.00;;;7.40;48.10;;;;;;4423805;32;20200;-70
2021/03/20 11:25:20;;;;;;;4.37;2.00;;;7.00;47.80;;;;;;4425210;32;20153;-71
2021/03/20 11:28:12;;;;;;;4.40;1.90;;;6.50;49.20;;;;;;4424633;32;20181;-69
2021/03/20 11:30:50;;;;;;;3.33;1.87;;;6.10;48.60;;;;;;4424177;32;20162;-70
2021/03/20 11:33:31;;;;;;;5.67;2.20;;;6.00;49.30;;;;;;4425083;32;20468;-70
2021/03/20 11:36:40;;;;;;;4.67;2.03;;;5.50;48.90;;;;;;4424553;32;20202;-69
2021/03/20 11:39:15;;;;;;;3.93;2.10;;;5.40;50.00;;;;;;4421458;32;20175;-70
2021/03/20 11:42:06;;;;;;;3.03;1.80;;;5.90;51.00;;;;;;4424819;32;20482;-69
2021/03/20 11:44:50;;;;;;;3.40;1.80;;;6.30;50.10;;;;;;4423461;32;20193;-71
2021/03/20 11:47:50;;;;;;;4.10;2.20;;;8.50;47.00;;;;;;4424252;32;20227;-70
2021/03/20 11:50:27;;;;;;;4.23;2.00;;;9.40;43.10;;;;;;4424252;32;20491;-69
2021/03/20 11:53:04;;;;;;;3.07;2.17;;;9.80;41.70;;;;;;4409689;32;20193;-71
2021/03/20 11:55:39;;;;;;;5.03;2.00;;;10.00;42.60;;;;;;4424028;32;20226;-69
2021/03/20 11:58:11;;;;;;;5.10;2.17;;;9.70;42.30;;;;;;4423945;32;20138;-70
2021/03/20 12:00:40;;;;;;;4.83;2.00;;;9.00;43.60;;;;;;4423900;32;20143;-70
2021/03/20 12:03:30;;;;;;;4.27;2.00;;;8.20;43.70;;;;;;4423731;32;20158;-70
2021/03/20 12:06:24;;;;;;;6.30;2.30;;;7.00;46.20;;;;;;4414465;32;20234;-71
2021/03/20 12:09:00;;;;;;;5.70;2.17;;;5.20;49.90;;;;;;4424895;32;20169;-69
2021/03/20 12:11:47;;;;;;;4.53;2.23;;;4.80;52.40;;;;;;4424938;32;20146;-69
2021/03/20 12:14:32;;;;;;;3.47;2.00;;;4.40;54.10;;;;;;4413055;32;20210;-70
2021/03/20 12:17:25;;;;;;;6.50;2.40;;;4.60;54.80;;;;;;4423565;32;20196;-69
2021/03/20 12:20:07;;;;;;;5.47;2.10;;;4.40;56.00;;;;;;4420930;32;20241;-71
2021/03/20 12:22:33;;;;;;;3.37;1.97;;;4.40;56.20;;;;;;4411465;32;20209;-71
2021/03/20 12:25:07;;;;;;;4.07;2.20;;;4.40;55.30;;;;;;4425457;32;20240;-71
2021/03/20 12:27:38;;;;;;;4.20;2.20;;;4.40;56.00;;;;;;4423325;32;20202;-70
2021/03/20 12:30:27;;;;;;;3.27;1.80;;;4.40;55.10;;;;;;4409654;32;20201;-71
2021/03/20 12:33:15;;;;;;;5.77;2.37;;;4.40;54.60;;;;;;4411975;32;20196;-71
2021/03/20 12:35:47;;;;;;;6.80;3.27;;;4.40;54.10;;;;;;4425033;32;20177;-69
2021/03/20 12:38:19;;;;;;;5.27;2.70;;;3.90;52.30;;;;;;4423938;32;20169;-71
2021/03/20 12:40:55;;;;;;;6.27;2.50;;;3.80;52.50;;;;;;4424452;32;20151;-70
2021/03/20 12:43:30;;;;;;;6.03;2.57;;;3.80;52.60;;;;;;4423848;32;20493;-70
2021/03/20 12:46:03;;;;;;;5.43;2.30;;;3.40;52.70;;;;;;4424896;32;20196;-72
2021/03/20 12:48:30;;;;;;;3.07;1.90;;;3.20;53.70;;;;;;4425732;32;20143;-68
2021/03/20 12:51:04;;;;;;;5.87;2.30;;;2.70;53.80;;;;;;4423642;32;20206;-68
2021/03/20 12:53:31;;;;;;;4.20;2.10;;;2.90;55.00;;;;;;4423273;32;20146;-69
2021/03/20 12:55:58;;;;;;;4.70;2.10;;;3.10;54.40;;;;;;4423165;32;20401;-69
2021/03/20 12:58:25;;;;;;;3.20;1.83;;;3.40;54.10;;;;;;4423870;32;20177;-68
2021/03/20 13:00:52;;;;;;;3.70;1.97;;;3.30;52.10;;;;;;4423623;32;20188;-70
2021/03/20 13:03:20;;;;;;;5.43;2.30;;;3.30;52.30;;;;;;4425567;32;20465;-70
2021/03/20 13:05:47;;;;;;;5.63;2.13;;;3.40;53.50;;;;;;4427297;32;20155;-70
2021/03/20 13:08:13;;;;;;;3.67;2.20;;;3.80;52.30;;;;;;4427841;32;20170;-71
2021/03/20 13:10:40;;;;;;;4.20;2.10;;;4.10;51.80;;;;;;4426271;32;20198;-70
2021/03/20 13:13:08;;;;;;;3.97;2.23;;;4.10;51.10;;;;;;4426087;32;20143;-69
2021/03/20 13:15:35;;;;;;;4.57;2.30;;;4.00;52.20;;;;;;4426127;32;20399;-70
2021/03/20 13:18:02;;;;;;;5.77;2.20;;;3.90;51.60;;;;;;4426287;32;20214;-69
2021/03/20 13:20:43;;;;;;;5.17;2.20;;;3.50;52.80;;;;;;4428159;32;20166;-70
2021/03/20 13:23:14;;;;;;;4.17;2.20;;;2.90;53.10;;;;;;4426582;32;20194;-71
2021/03/20 13:25:41;;;;;;;3.47;2.20;;;3.20;53.60;;;;;;4426091;32;20175;-70
2021/03/20 13:28:11;;;;;;;5.63;2.30;;;3.20;53.30;;;;;;4426188;32;20186;-70
2021/03/20 13:30:42;;;;;;;3.80;1.90;;;3.40;53.10;;;;;;4427845;32;20156;-70
2021/03/20 13:33:09;;;;;;;3.37;2.00;;;3.30;51.40;;;;;;4426407;32;20190;-70
2021/03/20 13:35:39;;;;;;;4.20;2.13;;;2.80;51.60;;;;;;4426167;32;20169;-69
2021/03/20 13:38:06;;;;;;;3.80;1.90;;;3.10;52.10;;;;;;4427469;32;20414;-70
2021/03/20 13:40:33;;;;;;;4.50;2.20;;;2.90;50.60;;;;;;4411450;32;20170;-70